Time;durP1;ratioP1;P1;durP2;ratioP2;P2;SDS_P1;SDS_P2;PMS_P1;PMS_P2;Temp;Humidity;BMP_temperature;BMP_pressure;BME280_temperature;BME280_humidity;BME280_pressure;Samples;Min_cycle;Max_cycle;Signal;HPM_P1;HPM_P2
2022/03/13 00:00:55;;;;;;;;;;;;;;;0.71;53.93;101429.00;123944;1099;104245;-78
2022/03/13 00:03:28;;;;;;;;;;;;;;;0.67;53.02;101431.17;124133;1099;104252;-78
2022/03/13 00:05:58;;;;;;;;;;;;;;;0.62;55.58;101441.09;123672;1099;104344;-78
2022/03/13 00:08:31;;;;;;;;;;;;;;;0.53;58.33;101433.44;123702;1099;104216;-77
2022/03/13 00:11:03;;;;;;;;;;;;;;;0.47;56.28;101432.88;123625;1099;104217;-78
2022/03/13 00:13:35;;;;;;;;;;;;;;;0.40;57.20;101432.18;123820;1099;104243;-78
2022/03/13 00:16:08;;;;;;;;;;;;;;;0.32;56.69;101428.89;123667;1099;104220;-78
2022/03/13 00:18:41;;;;;;;;;;;;;;;0.28;56.78;101424.20;123808;1099;104395;-77
2022/03/13 00:21:15;;;;;;;;;;;;;;;0.24;56.02;101425.61;123728;1099;104262;-78
2022/03/13 00:23:45;;;;;;;;;;;;;;;0.19;54.79;101416.55;123764;1099;104265;-78
2022/03/13 00:26:19;;;;;;;;;;;;;;;0.15;57.98;101420.50;123955;1099;104229;-78
2022/03/13 00:28:51;;;;;;;;;;;;;;;0.12;56.77;101417.63;123845;1098;104342;-78
2022/03/13 00:31:23;;;;;;;;;;;;;;;0.08;56.68;101419.80;123975;1099;104245;-78
2022/03/13 00:33:53;;;;;;;;;;;;;;;0.02;57.70;101419.22;123725;1099;104345;-78
2022/03/13 00:36:24;;;;;;;;;;;;;;;-0.05;56.77;101418.69;123552;1099;104729;-78
2022/03/13 00:38:53;;;;;;;;;;;;;;;-0.08;58.37;101420.98;123609;1099;104271;-78
2022/03/13 00:41:23;;;;;;;;;;;;;;;-0.12;57.32;101412.81;123626;1099;104278;-78
2022/03/13 00:43:53;;;;;;;;;;;;;;;-0.17;56.90;101417.55;123568;1099;104341;-78
2022/03/13 00:46:37;;;;;;;;;;;;;;;-0.23;59.30;101415.30;123656;1099;104277;-78
2022/03/13 00:49:11;;;;;;;;;;;;;;;-0.25;61.87;101410.74;123317;1099;104527;-77
2022/03/13 00:51:45;;;;;;;;;;;;;;;-0.29;59.49;101396.66;123312;1102;104437;-78
2022/03/13 00:54:17;;;;;;;;;;;;;;;-0.32;59.82;101398.95;123407;1102;104306;-77
2022/03/13 00:56:47;;;;;;;;;;;;;;;-0.34;58.32;101399.56;123375;1100;104316;-77
2022/03/13 00:59:18;;;;;;;;;;;;;;;-0.35;57.42;101398.67;123360;1102;104354;-78
2022/03/13 01:01:47;;;;;;;;;;;;;;;-0.35;58.12;101400.35;123225;1102;104264;-78
2022/03/13 01:04:19;;;;;;;;;;;;;;;-0.38;56.70;101396.70;123231;1099;104241;-77
2022/03/13 01:06:49;;;;;;;;;;;;;;;-0.38;56.61;101400.96;123354;1099;104284;-78
2022/03/13 01:09:19;;;;;;;;;;;;;;;-0.43;57.61;101397.95;123511;1099;104297;-78
2022/03/13 01:11:49;;;;;;;;;;;;;;;-0.45;57.80;101391.75;123607;1099;104325;-78
2022/03/13 01:14:21;;;;;;;;;;;;;;;-0.45;59.36;101399.48;123745;1099;104383;-78
2022/03/13 01:16:59;;;;;;;;;;;;;;;-0.46;58.76;101391.61;123785;1099;104264;-78
2022/03/13 01:19:34;;;;;;;;;;;;;;;-0.48;59.50;101393.11;123696;1099;104271;-78
2022/03/13 01:22:05;;;;;;;;;;;;;;;-0.48;58.49;101387.95;123499;1098;104271;-77
2022/03/13 01:24:43;;;;;;;;;;;;;;;-0.50;58.31;101392.07;123558;1099;104354;-78
2022/03/13 01:27:13;;;;;;;;;;;;;;;-0.55;58.18;101392.56;123581;1098;104296;-77
2022/03/13 01:29:43;;;;;;;;;;;;;;;-0.60;58.26;101392.88;123608;1098;104365;-78
2022/03/13 01:32:17;;;;;;;;;;;;;;;-0.61;57.72;101393.64;123661;1098;104294;-77
2022/03/13 01:34:49;;;;;;;;;;;;;;;-0.65;58.50;101397.60;123608;1099;107017;-77
2022/03/13 01:37:31;;;;;;;;;;;;;;;-0.65;62.33;101399.28;123661;1099;104255;-78
2022/03/13 01:40:03;;;;;;;;;;;;;;;-0.67;59.78;101403.36;123644;1099;104348;-77
2022/03/13 01:42:36;;;;;;;;;;;;;;;-0.70;60.42;101398.84;123659;1099;104242;-78
2022/03/13 01:45:11;;;;;;;;;;;;;;;-0.71;59.79;101396.13;123695;1099;118961;-77
2022/03/13 01:47:47;;;;;;;;;;;;;;;-0.74;59.17;101404.46;123648;1099;104329;-78
2022/03/13 01:50:16;;;;;;;;;;;;;;;-0.75;59.04;101398.41;123544;1099;104271;-78
2022/03/13 01:52:48;;;;;;;;;;;;;;;-0.77;57.82;101396.44;123579;1098;104399;-78
2022/03/13 01:55:18;;;;;;;;;;;;;;;-0.77;57.88;101394.75;123594;1099;104246;-78
2022/03/13 01:57:48;;;;;;;;;;;;;;;-0.79;60.94;101393.72;123573;1099;104272;-77
2022/03/13 02:00:20;;;;;;;;;;;;;;;-0.78;58.60;101399.77;123563;1099;104318;-78
2022/03/13 02:02:50;;;;;;;;;;;;;;;-0.80;59.73;101397.05;123588;1099;104280;-78
2022/03/13 02:05:26;;;;;;;;;;;;;;;-0.80;58.90;101393.56;123657;1098;110419;-78
2022/03/13 02:07:57;;;;;;;;;;;;;;;-0.81;61.22;101392.67;123681;1099;104245;-77
2022/03/13 02:10:27;;;;;;;;;;;;;;;-0.81;58.68;101389.16;123743;1099;104265;-77
2022/03/13 02:12:57;;;;;;;;;;;;;;;-0.82;59.25;101384.80;123708;1099;104274;-78
2022/03/13 02:15:30;;;;;;;;;;;;;;;-0.82;59.18;101389.95;123598;1099;105541;-78
2022/03/13 02:18:03;;;;;;;;;;;;;;;-0.85;58.55;101381.92;123712;1099;104335;-78
2022/03/13 02:20:39;;;;;;;;;;;;;;;-0.85;59.97;101387.08;123755;1099;104338;-77
2022/03/13 02:23:15;;;;;;;;;;;;;;;-0.88;58.74;101384.21;123554;1099;104239;-78
2022/03/13 02:25:48;;;;;;;;;;;;;;;-0.89;60.31;101385.86;123565;1099;108111;-77
2022/03/13 02:28:19;;;;;;;;;;;;;;;-0.89;59.42;101382.37;123681;1099;104300;-78
2022/03/13 02:30:50;;;;;;;;;;;;;;;-0.90;58.98;101389.22;123867;1099;104170;-78
2022/03/13 02:33:21;;;;;;;;;;;;;;;-0.91;59.93;101389.97;123808;1099;104261;-78
2022/03/13 02:35:54;;;;;;;;;;;;;;;-0.91;60.01;101389.97;123647;1099;104351;-78
2022/03/13 02:38:24;;;;;;;;;;;;;;;-0.92;58.55;101393.30;123707;1099;104268;-78
2022/03/13 02:40:54;;;;;;;;;;;;;;;-0.94;59.83;101397.40;123648;1099;104870;-78
2022/03/13 02:43:25;;;;;;;;;;;;;;;-0.95;60.61;101393.00;123649;1099;104265;-77
2022/03/13 02:45:55;;;;;;;;;;;;;;;-0.96;61.67;101401.51;123543;1098;104345;-77
2022/03/13 02:48:25;;;;;;;;;;;;;;;-0.96;61.89;101392.09;123733;1099;104190;-78
2022/03/13 02:50:54;;;;;;;;;;;;;;;-0.98;62.33;101400.44;123671;1099;104347;-78
2022/03/13 02:53:24;;;;;;;;;;;;;;;-0.98;61.78;101396.21;123886;1099;104312;-78
2022/03/13 02:55:54;;;;;;;;;;;;;;;-1.00;63.38;101400.28;123602;1099;104720;-78
2022/03/13 02:58:24;;;;;;;;;;;;;;;-1.02;61.30;101401.81;123807;1099;104663;-77
2022/03/13 03:00:54;;;;;;;;;;;;;;;-1.05;63.62;101406.67;123945;1099;104222;-78
2022/03/13 03:03:25;;;;;;;;;;;;;;;-1.07;62.12;101402.16;123893;1099;104313;-78
2022/03/13 03:05:56;;;;;;;;;;;;;;;-1.11;61.01;101399.28;123714;1098;104306;-77
2022/03/13 03:08:25;;;;;;;;;;;;;;;-1.15;61.70;101401.41;123770;1099;104242;-78
2022/03/13 03:10:55;;;;;;;;;;;;;;;-1.18;63.95;101403.69;123719;1098;104296;-78
2022/03/13 03:13:24;;;;;;;;;;;;;;;-1.21;62.36;101399.14;123778;1099;104219;-78
2022/03/13 03:15:54;;;;;;;;;;;;;;;-1.22;62.43;101405.04;123709;1099;104864;-78
2022/03/13 03:18:25;;;;;;;;;;;;;;;-1.27;61.45;101402.02;123806;1099;104341;-78
2022/03/13 03:20:55;;;;;;;;;;;;;;;-1.30;61.30;101396.56;123702;1099;104709;-76
2022/03/13 03:23:26;;;;;;;;;;;;;;;-1.32;62.86;101394.62;123824;1099;104309;-78
2022/03/13 03:25:56;;;;;;;;;;;;;;;-1.35;64.68;101395.22;123909;1099;104242;-78
2022/03/13 03:28:26;;;;;;;;;;;;;;;-1.35;62.18;101399.47;123760;1099;104367;-77
2022/03/13 03:31:00;;;;;;;;;;;;;;;-1.37;64.10;101400.97;123804;1099;104373;-77
2022/03/13 03:33:29;;;;;;;;;;;;;;;-1.37;62.71;101395.82;123715;1099;104410;-77
2022/03/13 03:36:00;;;;;;;;;;;;;;;-1.38;62.39;101396.60;123752;1099;104238;-77
2022/03/13 03:38:32;;;;;;;;;;;;;;;-1.42;63.13;101403.09;123823;1099;104322;-77
2022/03/13 03:41:02;;;;;;;;;;;;;;;-1.44;63.37;101396.89;123778;1099;104447;-78
2022/03/13 03:43:31;;;;;;;;;;;;;;;-1.45;62.13;101396.00;123884;1099;104245;-78
2022/03/13 03:46:02;;;;;;;;;;;;;;;-1.46;62.93;101391.59;123918;1099;104351;-78
2022/03/13 03:48:32;;;;;;;;;;;;;;;-1.46;61.74;101394.17;123993;1099;104303;-78
2022/03/13 03:51:02;;;;;;;;;;;;;;;-1.45;63.53;101392.49;123837;1099;104239;-78
2022/03/13 03:53:31;;;;;;;;;;;;;;;-1.47;61.91;101392.34;123727;1099;104287;-78
2022/03/13 03:56:02;;;;;;;;;;;;;;;-1.45;64.10;101395.07;123653;1099;104274;-78
2022/03/13 03:58:32;;;;;;;;;;;;;;;-1.44;62.32;101391.75;123842;1099;104297;-77
2022/03/13 04:01:02;;;;;;;;;;;;;;;-1.43;62.42;101396.16;123727;1099;104290;-77
2022/03/13 04:03:34;;;;;;;;;;;;;;;-1.39;62.29;101394.77;123631;1099;104297;-78
2022/03/13 04:06:06;;;;;;;;;;;;;;;-1.36;63.29;101387.34;123749;1099;104294;-78
2022/03/13 04:08:37;;;;;;;;;;;;;;;-1.34;62.20;101386.75;123789;1099;104331;-78
2022/03/13 04:11:08;;;;;;;;;;;;;;;-1.32;61.63;101390.38;123698;1099;104242;-77
2022/03/13 04:13:38;;;;;;;;;;;;;;;-1.29;62.71;101389.77;123757;1099;105034;-77
2022/03/13 04:16:10;;;;;;;;;;;;;;;-1.27;63.97;101388.24;123889;1099;104264;-77
2022/03/13 04:18:39;;;;;;;;;;;;;;;-1.26;62.83;101387.50;123667;1099;104271;-77
2022/03/13 04:21:09;;;;;;;;;;;;;;;-1.27;62.12;101386.56;123690;1099;104836;-77
2022/03/13 04:23:39;;;;;;;;;;;;;;;-1.28;62.78;101395.07;123694;1099;104267;-78
2022/03/13 04:26:08;;;;;;;;;;;;;;;-1.28;62.55;101391.56;123713;1099;104236;-78
2022/03/13 04:28:38;;;;;;;;;;;;;;;-1.30;63.02;101401.72;123736;1099;104283;-77
2022/03/13 04:31:08;;;;;;;;;;;;;;;-1.30;62.90;101399.14;123665;1099;104348;-78
2022/03/13 04:33:40;;;;;;;;;;;;;;;-1.29;62.60;101400.08;123613;1099;104341;-78
2022/03/13 04:36:12;;;;;;;;;;;;;;;-1.29;62.95;101400.97;123794;1099;104342;-77
2022/03/13 04:38:42;;;;;;;;;;;;;;;-1.27;63.83;101407.16;123693;1099;104194;-77
2022/03/13 04:41:12;;;;;;;;;;;;;;;-1.24;63.06;101413.40;123772;1099;104440;-78
2022/03/13 04:43:43;;;;;;;;;;;;;;;-1.24;62.48;101411.72;123630;1099;104238;-78
2022/03/13 04:46:13;;;;;;;;;;;;;;;-1.21;63.93;101414.59;123754;1099;104268;-77
2022/03/13 04:48:44;;;;;;;;;;;;;;;-1.17;63.81;101415.79;123601;1099;104271;-78
2022/03/13 04:51:14;;;;;;;;;;;;;;;-1.14;64.85;101414.44;123729;1099;104264;-78
2022/03/13 04:53:44;;;;;;;;;;;;;;;-1.07;63.77;101421.09;123679;1098;104338;-77
2022/03/13 04:56:14;;;;;;;;;;;;;;;-1.02;64.79;101429.26;123743;1099;104246;-77
2022/03/13 04:58:44;;;;;;;;;;;;;;;-0.98;63.06;101423.62;123904;1099;104223;-77
2022/03/13 05:01:16;;;;;;;;;;;;;;;-0.93;64.17;101424.99;123988;1099;104370;-77
2022/03/13 05:03:47;;;;;;;;;;;;;;;-0.85;63.04;101425.73;123980;1099;104201;-77
2022/03/13 05:06:17;;;;;;;;;;;;;;;-0.77;62.99;101423.11;123767;1099;104268;-77
2022/03/13 05:08:49;;;;;;;;;;;;;;;-0.69;63.04;101429.00;123758;1099;104331;-77
2022/03/13 05:11:19;;;;;;;;;;;;;;;-0.62;63.88;101430.52;123733;1099;104242;-77
2022/03/13 05:13:49;;;;;;;;;;;;;;;-0.60;64.34;101439.29;123861;1099;104230;-78
2022/03/13 05:16:19;;;;;;;;;;;;;;;-0.59;63.89;101435.95;123830;1099;104274;-78
2022/03/13 05:18:49;;;;;;;;;;;;;;;-0.58;64.55;101445.48;123882;1099;104463;-78
2022/03/13 05:21:19;;;;;;;;;;;;;;;-0.58;64.17;101442.91;123905;1099;104386;-78
2022/03/13 05:23:49;;;;;;;;;;;;;;;-0.58;64.34;101443.84;124042;1099;104195;-77
2022/03/13 05:26:20;;;;;;;;;;;;;;;-0.55;65.33;101444.13;123952;1099;104335;-77
2022/03/13 05:28:49;;;;;;;;;;;;;;;-0.51;64.43;101444.39;123916;1099;104270;-77
2022/03/13 05:31:19;;;;;;;;;;;;;;;-0.49;65.10;101446.36;123825;1099;104344;-77
2022/03/13 05:33:49;;;;;;;;;;;;;;;-0.46;64.05;101449.23;123634;1099;104291;-78
2022/03/13 05:36:18;;;;;;;;;;;;;;;-0.43;64.58;101446.95;123695;1099;104265;-77
2022/03/13 05:38:48;;;;;;;;;;;;;;;-0.40;64.18;101447.23;123558;1099;104264;-78
2022/03/13 05:41:22;;;;;;;;;;;;;;;-0.35;64.90;101451.93;123739;1099;104402;-78
2022/03/13 05:43:52;;;;;;;;;;;;;;;-0.28;63.90;101449.14;123736;1098;104329;-78
2022/03/13 05:46:21;;;;;;;;;;;;;;;-0.20;64.34;101450.80;123747;1098;104239;-78
2022/03/13 05:48:52;;;;;;;;;;;;;;;-0.13;64.96;101453.16;123967;1099;104348;-77
2022/03/13 05:51:22;;;;;;;;;;;;;;;-0.06;64.19;101452.98;123857;1098;104395;-77
2022/03/13 05:53:52;;;;;;;;;;;;;;;0.03;65.39;101452.91;123907;1098;104245;-77
2022/03/13 05:56:22;;;;;;;;;;;;;;;0.12;64.93;101451.19;123707;1099;104249;-78
2022/03/13 05:58:51;;;;;;;;;;;;;;;0.22;64.45;101458.13;123553;1099;104272;-77
2022/03/13 06:01:21;;;;;;;;;;;;;;;0.30;63.87;101446.83;123569;1098;104328;-77
2022/03/13 06:03:51;;;;;;;;;;;;;;;0.39;64.39;101457.10;123563;1099;104402;-78
2022/03/13 06:06:21;;;;;;;;;;;;;;;0.44;65.47;101452.36;123857;1099;104335;-78
2022/03/13 06:08:51;;;;;;;;;;;;;;;0.44;64.98;101461.00;123776;1099;104322;-78
2022/03/13 06:11:21;;;;;;;;;;;;;;;0.45;64.40;101460.25;123681;1099;104332;-78
2022/03/13 06:13:50;;;;;;;;;;;;;;;0.49;64.53;101471.76;123760;1099;104237;-78
2022/03/13 06:16:21;;;;;;;;;;;;;;;0.48;64.36;101470.86;123849;1099;104191;-78
2022/03/13 06:18:50;;;;;;;;;;;;;;;0.50;64.39;101471.00;123957;1099;104191;-78
2022/03/13 06:21:21;;;;;;;;;;;;;;;0.56;64.72;101466.36;123942;1099;104268;-78
2022/03/13 06:23:50;;;;;;;;;;;;;;;0.62;64.74;101472.08;123671;1098;104352;-76
2022/03/13 06:26:20;;;;;;;;;;;;;;;0.69;64.60;101471.89;123594;1099;104318;-77
2022/03/13 06:28:51;;;;;;;;;;;;;;;0.74;64.04;101469.72;123675;1099;104264;-77
2022/03/13 06:31:21;;;;;;;;;;;;;;;0.77;64.10;101472.58;123696;1099;104372;-77
2022/03/13 06:33:51;;;;;;;;;;;;;;;0.81;64.12;101471.17;123780;1099;104316;-78
2022/03/13 06:36:21;;;;;;;;;;;;;;;0.83;64.82;101477.41;123876;1099;104264;-78
2022/03/13 06:38:51;;;;;;;;;;;;;;;0.85;64.36;101483.61;123812;1099;104389;-78
2022/03/13 06:41:21;;;;;;;;;;;;;;;0.83;64.14;101479.99;123888;1098;104274;-78
2022/03/13 06:43:51;;;;;;;;;;;;;;;0.83;65.35;101477.41;124021;1098;104254;-78
2022/03/13 06:46:22;;;;;;;;;;;;;;;0.87;64.92;101482.06;124045;1099;104404;-79
2022/03/13 06:48:52;;;;;;;;;;;;;;;0.88;64.93;101483.89;124134;1099;104373;-79
2022/03/13 06:51:22;;;;;;;;;;;;;;;0.91;65.40;101491.92;123718;1099;104342;-78
2022/03/13 06:53:52;;;;;;;;;;;;;;;0.95;65.10;101493.09;123716;1100;104434;-78
2022/03/13 06:56:22;;;;;;;;;;;;;;;0.98;65.85;101502.05;123653;1099;104401;-78
2022/03/13 06:58:53;;;;;;;;;;;;;;;1.00;65.22;101502.19;123617;1099;104300;-78
2022/03/13 07:01:26;;;;;;;;;;;;;;;1.02;64.77;101498.95;123649;1099;106927;-77
2022/03/13 07:03:57;;;;;;;;;;;;;;;1.04;65.75;101507.77;123679;1099;104424;-78
2022/03/13 07:06:29;;;;;;;;;;;;;;;1.02;66.90;101506.70;123857;1099;104345;-78
2022/03/13 07:08:59;;;;;;;;;;;;;;;1.01;65.47;101507.50;123825;1099;104226;-77
2022/03/13 07:11:30;;;;;;;;;;;;;;;1.01;65.33;101512.66;123712;1102;118785;-78
2022/03/13 07:14:01;;;;;;;;;;;;;;;0.99;65.03;101505.53;123660;1100;104421;-78
2022/03/13 07:16:31;;;;;;;;;;;;;;;0.98;64.80;101511.46;123649;1099;104328;-78
2022/03/13 07:19:01;;;;;;;;;;;;;;;0.96;64.24;101519.08;123651;1102;104338;-78
2022/03/13 07:21:30;;;;;;;;;;;;;;;1.04;65.36;101520.70;123757;1099;104884;-78
2022/03/13 07:24:01;;;;;;;;;;;;;;;1.20;65.34;101516.88;123962;1099;104213;-77
2022/03/13 07:26:31;;;;;;;;;;;;;;;1.34;65.46;101513.86;123926;1099;104347;-78
2022/03/13 07:29:01;;;;;;;;;;;;;;;1.49;65.44;101519.46;124021;1099;104306;-78
2022/03/13 07:31:32;;;;;;;;;;;;;;;1.61;66.70;101522.23;123849;1099;104296;-78
2022/03/13 07:34:02;;;;;;;;;;;;;;;1.72;65.54;101521.48;123917;1099;104343;-77
2022/03/13 07:36:34;;;;;;;;;;;;;;;1.76;65.14;101520.99;124012;1099;104310;-77
2022/03/13 07:39:04;;;;;;;;;;;;;;;1.82;65.80;101524.87;123952;1099;104366;-77
2022/03/13 07:41:34;;;;;;;;;;;;;;;1.88;65.50;101521.13;123856;1099;104271;-78
2022/03/13 07:44:06;;;;;;;;;;;;;;;1.97;65.59;101529.70;124069;1098;104385;-78
2022/03/13 07:46:36;;;;;;;;;;;;;;;2.03;65.85;101529.33;124169;1099;104277;-78
2022/03/13 07:49:10;;;;;;;;;;;;;;;2.11;64.98;101536.06;124170;1098;104222;-78
2022/03/13 07:51:43;;;;;;;;;;;;;;;2.20;65.55;101524.67;124036;1099;104366;-78
2022/03/13 07:54:14;;;;;;;;;;;;;;;2.30;64.71;101530.77;123942;1098;104303;-78
2022/03/13 07:56:44;;;;;;;;;;;;;;;2.39;64.71;101528.08;124267;1098;104301;-78
2022/03/13 07:59:14;;;;;;;;;;;;;;;2.48;65.08;101525.36;124277;1099;104290;-76
2022/03/13 08:01:47;;;;;;;;;;;;;;;2.59;64.46;101526.27;124175;1099;104242;-78
2022/03/13 08:04:19;;;;;;;;;;;;;;;2.67;63.91;101531.30;123875;1098;104309;-78
2022/03/13 08:06:48;;;;;;;;;;;;;;;2.77;64.07;101532.97;124081;1098;104348;-78
2022/03/13 08:09:18;;;;;;;;;;;;;;;2.91;63.29;101539.30;124076;1099;104313;-78
2022/03/13 08:11:48;;;;;;;;;;;;;;;3.00;63.36;101537.47;124201;1099;104267;-78
2022/03/13 08:14:18;;;;;;;;;;;;;;;3.10;62.79;101533.97;124036;1099;104248;-78
2022/03/13 08:16:47;;;;;;;;;;;;;;;3.21;61.94;101533.16;123971;1099;104268;-78
2022/03/13 08:19:17;;;;;;;;;;;;;;;3.35;60.85;101528.16;124221;1099;104310;-77
2022/03/13 08:21:47;;;;;;;;;;;;;;;3.45;60.20;101533.33;124019;1099;104235;-77
2022/03/13 08:24:20;;;;;;;;;;;;;;;3.61;60.17;101532.86;124224;1099;104261;-77
2022/03/13 08:26:51;;;;;;;;;;;;;;;3.85;59.76;101530.40;124142;1099;104644;-77
2022/03/13 08:29:24;;;;;;;;;;;;;;;4.04;58.95;101536.27;124414;1097;104348;-78
2022/03/13 08:31:56;;;;;;;;;;;;;;;4.25;60.45;101533.53;124275;1099;104325;-77
2022/03/13 08:34:38;;;;;;;;;;;;;;;4.52;61.53;101529.57;124220;1099;104312;-78
2022/03/13 08:37:08;;;;;;;;;;;;;;;4.78;60.06;101528.02;124256;1099;104453;-78
2022/03/13 08:39:38;;;;;;;;;;;;;;;4.93;58.86;101534.38;123998;1099;104354;-77
2022/03/13 08:42:08;;;;;;;;;;;;;;;5.06;56.58;101536.19;124202;1099;104686;-78
2022/03/13 08:44:39;;;;;;;;;;;;;;;5.09;58.10;101531.22;124136;1099;104224;-78
2022/03/13 08:47:10;;;;;;;;;;;;;;;5.21;57.92;101536.44;124161;1099;104335;-78
2022/03/13 08:49:40;;;;;;;;;;;;;;;5.26;57.69;101532.47;124201;1099;104271;-78
2022/03/13 08:52:09;;;;;;;;;;;;;;;5.25;53.70;101528.08;124217;1099;104173;-78
2022/03/13 08:54:39;;;;;;;;;;;;;;;5.06;46.90;101537.90;123849;1099;105043;-78
2022/03/13 08:57:09;;;;;;;;;;;;;;;4.94;49.79;101535.27;124426;1099;104259;-78
2022/03/13 08:59:39;;;;;;;;;;;;;;;4.77;49.07;101539.20;124327;1099;104242;-78
2022/03/13 09:02:11;;;;;;;;;;;;;;;4.75;52.37;101544.29;124449;1099;104227;-78
2022/03/13 09:04:41;;;;;;;;;;;;;;;4.83;50.56;101552.67;124554;1099;104701;-78
2022/03/13 09:07:11;;;;;;;;;;;;;;;4.93;54.47;101543.89;124514;1099;104351;-78
2022/03/13 09:09:44;;;;;;;;;;;;;;;5.18;54.32;101547.52;124555;1099;104271;-77
2022/03/13 09:12:16;;;;;;;;;;;;;;;5.26;54.24;101547.19;124522;1099;104249;-76
2022/03/13 09:14:48;;;;;;;;;;;;;;;5.19;51.49;101553.64;124948;1099;104242;-77
2022/03/13 09:17:19;;;;;;;;;;;;;;;5.13;53.24;101556.69;125133;1099;104233;-77
2022/03/13 09:19:51;;;;;;;;;;;;;;;4.97;52.88;101554.64;124169;1099;104277;-77
2022/03/13 09:22:28;;;;;;;;;;;;;;;4.85;52.07;101561.52;124063;1100;104386;-77
2022/03/13 09:24:58;;;;;;;;;;;;;;;4.73;53.82;101556.28;124880;1099;104271;-77
2022/03/13 09:27:29;;;;;;;;;;;;;;;4.64;50.28;101559.11;124569;1099;104297;-77
2022/03/13 09:29:59;;;;;;;;;;;;;;;4.46;48.69;101568.98;123981;1099;104242;-77
2022/03/13 09:32:29;;;;;;;;;;;;;;;4.36;49.94;101569.05;123982;1098;104351;-77
2022/03/13 09:35:00;;;;;;;;;;;;;;;4.28;50.45;101570.14;124090;1099;104846;-77
2022/03/13 09:37:31;;;;;;;;;;;;;;;4.20;47.53;101563.45;124414;1098;104306;-77
2022/03/13 09:40:01;;;;;;;;;;;;;;;4.21;50.65;101567.88;124007;1102;104341;-77
2022/03/13 09:42:31;;;;;;;;;;;;;;;4.29;52.14;101564.17;123923;1102;105963;-78
2022/03/13 09:45:03;;;;;;;;;;;;;;;4.29;49.17;101565.07;123894;1102;104488;-78
2022/03/13 09:47:34;;;;;;;;;;;;;;;4.38;49.19;101566.56;124000;1102;104510;-78
2022/03/13 09:50:11;;;;;;;;;;;;;;;4.53;50.86;101572.95;124027;1102;104341;-78
2022/03/13 09:52:44;;;;;;;;;;;;;;;4.61;47.11;101576.14;124158;1102;104313;-77
2022/03/13 09:55:16;;;;;;;;;;;;;;;4.74;49.70;101570.20;124155;1102;104220;-77
2022/03/13 09:57:54;;;;;;;;;;;;;;;4.86;49.00;101576.31;124120;1102;104380;-77
2022/03/13 10:00:26;;;;;;;;;;;;;;;4.96;50.47;101564.93;124026;1102;104444;-77
2022/03/13 10:02:56;;;;;;;;;;;;;;;5.08;50.75;101577.93;124096;1102;104308;-78
2022/03/13 10:05:27;;;;;;;;;;;;;;;5.18;51.32;101578.73;124181;1102;104374;-78
2022/03/13 10:07:59;;;;;;;;;;;;;;;5.31;50.19;101570.13;124542;1102;104434;-77
2022/03/13 10:10:30;;;;;;;;;;;;;;;5.37;51.30;101573.19;124350;1102;104251;-77
2022/03/13 10:13:02;;;;;;;;;;;;;;;5.43;51.02;101577.06;124398;1099;104229;-77
2022/03/13 10:15:40;;;;;;;;;;;;;;;5.45;51.16;101575.47;124897;1099;104272;-77
2022/03/13 10:18:14;;;;;;;;;;;;;;;5.40;51.51;101576.02;124700;1099;104274;-77
2022/03/13 10:20:46;;;;;;;;;;;;;;;5.39;51.24;101579.44;124567;1099;104249;-78
2022/03/13 10:23:19;;;;;;;;;;;;;;;5.37;48.65;101573.19;124469;1099;104364;-77
2022/03/13 10:25:49;;;;;;;;;;;;;;;5.33;46.31;101585.86;124707;1099;104316;-77
2022/03/13 10:28:23;;;;;;;;;;;;;;;5.27;49.71;101588.94;124438;1099;104277;-78
2022/03/13 10:31:24;;;;;;;;;;;;;;;5.26;51.41;101581.02;124236;1099;104248;-78
2022/03/13 10:33:56;;;;;;;;;;;;;;;5.22;49.66;101582.50;125017;1099;104269;-76
2022/03/13 10:36:35;;;;;;;;;;;;;;;5.18;49.33;101589.15;124377;1098;104354;-77
2022/03/13 10:39:11;;;;;;;;;;;;;;;5.16;50.69;101589.84;124941;1099;104208;-77
2022/03/13 10:41:45;;;;;;;;;;;;;;;5.09;50.20;101591.06;124699;1099;104300;-77
2022/03/13 10:44:17;;;;;;;;;;;;;;;5.09;47.94;101588.45;124398;1099;104340;-77
2022/03/13 10:46:54;;;;;;;;;;;;;;;4.94;44.08;101596.03;124192;1099;104941;-77
2022/03/13 10:49:36;;;;;;;;;;;;;;;4.97;47.15;101585.86;124659;1099;104171;-77
2022/03/13 10:52:25;;;;;;;;;;;;;;;5.00;46.55;101588.69;124609;1098;104222;-77
2022/03/13 10:54:58;;;;;;;;;;;;;;;5.11;50.10;101588.57;124790;1099;104217;-77
2022/03/13 10:57:28;;;;;;;;;;;;;;;5.25;48.06;101592.20;124910;1099;104290;-77
2022/03/13 11:00:12;;;;;;;;;;;;;;;5.28;48.13;101593.33;124490;1099;104297;-77
2022/03/13 11:02:43;;;;;;;;;;;;;;;5.34;46.89;101590.29;124514;1099;104238;-77
2022/03/13 11:05:16;;;;;;;;;;;;;;;5.45;49.19;101588.48;124841;1099;104412;-78
2022/03/13 11:07:57;;;;;;;;;;;;;;;5.52;48.86;101588.16;124664;1099;104245;-77
2022/03/13 11:10:28;;;;;;;;;;;;;;;5.46;47.68;101590.30;124010;1098;104251;-77
2022/03/13 11:13:07;;;;;;;;;;;;;;;5.34;46.81;101593.78;124036;1099;104265;-78
2022/03/13 11:15:42;;;;;;;;;;;;;;;5.29;48.42;101592.55;124574;1099;104220;-77
2022/03/13 11:18:17;;;;;;;;;;;;;;;5.20;47.05;101590.19;123983;1099;104344;-76
2022/03/13 11:20:49;;;;;;;;;;;;;;;5.12;47.53;101598.20;124456;1099;104200;-77
2022/03/13 11:23:20;;;;;;;;;;;;;;;5.06;48.31;101583.02;124390;1099;104255;-78
2022/03/13 11:25:54;;;;;;;;;;;;;;;5.02;46.34;101592.30;124061;1099;104746;-78
2022/03/13 11:28:26;;;;;;;;;;;;;;;5.04;46.39;101588.11;124311;1099;104305;-77
2022/03/13 11:30:57;;;;;;;;;;;;;;;5.06;48.04;101589.93;124472;1099;104270;-78
2022/03/13 11:33:34;;;;;;;;;;;;;;;5.04;47.69;101589.81;124000;1099;104367;-77
2022/03/13 11:36:22;;;;;;;;;;;;;;;5.04;48.07;101595.91;124041;1098;104350;-77
2022/03/13 11:38:59;;;;;;;;;;;;;;;5.06;47.60;101593.43;124003;1099;104357;-77
2022/03/13 11:41:37;;;;;;;;;;;;;;;5.04;46.24;101601.12;123874;1099;104222;-78
2022/03/13 11:44:37;;;;;;;;;;;;;;;5.07;47.79;101592.65;124170;1099;104270;-78
2022/03/13 11:47:23;;;;;;;;;;;;;;;5.06;47.35;101602.94;124802;1098;111811;-77
2022/03/13 11:49:54;;;;;;;;;;;;;;;5.07;47.96;101603.05;124435;1099;104174;-77
2022/03/13 11:52:33;;;;;;;;;;;;;;;5.08;47.64;101604.88;124188;1099;104399;-78
2022/03/13 11:55:10;;;;;;;;;;;;;;;5.14;46.63;101604.41;124225;1099;104271;-78
2022/03/13 11:57:44;;;;;;;;;;;;;;;5.20;47.11;101602.27;124344;1099;104392;-77
2022/03/13 12:00:33;;;;;;;;;;;;;;;5.29;47.57;101608.16;124497;1099;104670;-78
2022/03/13 12:03:15;;;;;;;;;;;;;;;5.33;47.44;101609.29;124607;1099;102979;-78
2022/03/13 12:05:53;;;;;;;;;;;;;;;5.30;47.02;101604.78;124235;1099;104257;-78
2022/03/13 12:08:28;;;;;;;;;;;;;;;5.32;47.17;101611.00;124605;1099;104271;-78
2022/03/13 12:11:18;;;;;;;;;;;;;;;5.28;48.48;101611.55;124687;1099;104269;-78
2022/03/13 12:13:51;;;;;;;;;;;;;;;5.19;48.34;101610.89;124324;1102;104935;-77
2022/03/13 12:16:21;;;;;;;;;;;;;;;5.08;48.62;101622.16;124105;1101;104322;-78
2022/03/13 12:18:59;;;;;;;;;;;;;;;4.97;47.60;101617.07;123995;1102;104345;-77
2022/03/13 12:21:32;;;;;;;;;;;;;;;4.88;48.03;101626.77;123927;1102;104527;-78
2022/03/13 12:24:15;;;;;;;;;;;;;;;4.81;47.80;101629.67;124374;1100;104387;-77
2022/03/13 12:26:47;;;;;;;;;;;;;;;4.73;48.19;101633.39;124445;1102;104332;-78
2022/03/13 12:29:32;;;;;;;;;;;;;;;4.66;47.63;101635.52;123958;1102;104520;-78
2022/03/13 12:32:27;;;;;;;;;;;;;;;4.58;47.56;101634.02;124264;1102;104424;-78
2022/03/13 12:35:08;;;;;;;;;;;;;;;4.58;49.26;101639.22;124369;1102;104412;-77
2022/03/13 12:37:40;;;;;;;;;;;;;;;4.57;48.48;101639.10;124002;1102;104527;-79
2022/03/13 12:40:13;;;;;;;;;;;;;;;4.51;48.46;101649.91;124176;1102;104230;-78
2022/03/13 12:42:54;;;;;;;;;;;;;;;4.46;48.67;101654.75;124290;1102;104439;-77
2022/03/13 12:45:25;;;;;;;;;;;;;;;4.38;47.97;101653.25;123712;1099;104281;-78
2022/03/13 12:48:01;;;;;;;;;;;;;;;4.32;48.98;101658.86;124520;1099;104338;-78